createdAt,value
2018-10-11T00:00:25.081Z,0.00
2018-10-11T00:01:00.338Z,0.00
2018-10-11T00:01:36.631Z,0.00
2018-10-11T00:02:12.102Z,0.00
2018-10-11T00:02:47.631Z,0.00
2018-10-11T00:03:22.894Z,0.00
2018-10-11T00:03:58.215Z,0.00
2018-10-11T00:04:33.989Z,0.00
2018-10-11T00:05:09.324Z,0.00
2018-10-11T00:05:44.846Z,0.00
2018-10-11T00:06:19.898Z,0.00
2018-10-11T00:06:55.250Z,0.00
2018-10-11T00:07:30.603Z,0.00
2018-10-11T00:08:05.918Z,0.00
2018-10-11T00:08:41.438Z,0.00
2018-10-11T00:09:17.074Z,0.00
2018-10-11T00:09:52.316Z,0.00
2018-10-11T00:10:27.770Z,0.00
2018-10-11T00:11:03.341Z,0.00
2018-10-11T00:11:38.551Z,0.00
2018-10-11T00:12:13.992Z,0.00
2018-10-11T00:12:50.785Z,0.00
2018-10-11T00:13:26.231Z,0.00
2018-10-11T00:14:01.555Z,0.00
2018-10-11T00:14:37.513Z,0.00
2018-10-11T00:15:12.738Z,0.00
2018-10-11T00:15:48.525Z,0.00
2018-10-11T00:16:24.044Z,0.00
2018-10-11T00:16:59.627Z,0.00
2018-10-11T00:17:34.971Z,0.00
2018-10-11T00:18:10.328Z,0.00
2018-10-11T00:18:45.665Z,0.00
2018-10-11T00:19:20.993Z,0.00
2018-10-11T00:19:56.057Z,0.00
2018-10-11T00:20:31.415Z,0.00
2018-10-11T00:21:07.038Z,0.00
2018-10-11T00:21:42.604Z,0.00
2018-10-11T00:22:17.825Z,0.00
2018-10-11T00:22:53.053Z,0.00
2018-10-11T00:23:28.456Z,0.00
2018-10-11T00:24:03.828Z,0.00
2018-10-11T00:24:39.291Z,0.00
2018-10-11T00:25:14.534Z,0.00
2018-10-11T00:25:50.025Z,0.00
2018-10-11T00:26:25.719Z,0.00
2018-10-11T00:27:01.251Z,0.00
2018-10-11T00:27:36.783Z,0.00
2018-10-11T00:28:11.976Z,0.00
2018-10-11T00:28:47.189Z,0.00
2018-10-11T00:29:22.591Z,0.00
2018-10-11T00:29:57.827Z,0.00
2018-10-11T00:30:33.222Z,0.00
2018-10-11T00:31:08.671Z,0.00
2018-10-11T00:31:43.879Z,0.00
2018-10-11T00:32:19.634Z,0.00
2018-10-11T00:32:55.055Z,0.00
2018-10-11T00:33:30.599Z,0.00
2018-10-11T00:34:06.240Z,0.00
2018-10-11T00:34:41.829Z,0.00
2018-10-11T00:35:17.220Z,0.00
2018-10-11T00:35:52.580Z,0.00
2018-10-11T00:36:27.909Z,0.00
2018-10-11T00:37:03.125Z,0.00
2018-10-11T00:37:38.419Z,0.00
2018-10-11T00:38:13.841Z,0.00
2018-10-11T00:38:49.385Z,0.00
2018-10-11T00:39:25.023Z,0.00
2018-10-11T00:40:00.573Z,0.00
2018-10-11T00:40:36.581Z,0.00
2018-10-11T00:41:11.959Z,0.00
2018-10-11T00:41:47.625Z,0.00
2018-10-11T00:42:23.045Z,0.00
2018-10-11T00:42:58.716Z,0.00
2018-10-11T00:43:34.131Z,0.00
2018-10-11T00:44:09.505Z,0.00
2018-10-11T00:44:44.843Z,0.00
2018-10-11T00:45:20.685Z,0.00
2018-10-11T00:45:56.588Z,0.00
2018-10-11T00:46:31.917Z,0.00
2018-10-11T00:47:07.446Z,0.00
2018-10-11T00:47:42.981Z,0.00
2018-10-11T00:48:18.364Z,0.00
2018-10-11T00:48:53.525Z,0.00
2018-10-11T00:49:29.064Z,0.00
2018-10-11T00:50:04.471Z,0.00
2018-10-11T00:50:39.548Z,0.00
2018-10-11T00:51:14.922Z,0.00
2018-10-11T00:51:50.155Z,0.00
2018-10-11T00:52:25.778Z,0.00
2018-10-11T00:53:00.881Z,0.00
2018-10-11T00:53:36.045Z,0.00
2018-10-11T00:54:11.477Z,0.00
2018-10-11T00:54:47.117Z,0.00
2018-10-11T00:55:22.542Z,0.00
2018-10-11T00:55:58.071Z,0.00
2018-10-11T00:56:33.604Z,0.00
2018-10-11T00:57:09.184Z,0.00
2018-10-11T00:57:44.643Z,0.00
2018-10-11T00:58:19.905Z,0.00
2018-10-11T00:58:55.111Z,0.00
2018-10-11T00:59:30.579Z,0.00
2018-10-11T01:00:05.889Z,0.00
2018-10-11T01:00:41.917Z,0.00
2018-10-11T01:01:17.545Z,0.00
2018-10-11T01:01:52.865Z,0.00
2018-10-11T01:02:28.315Z,0.00
2018-10-11T01:03:03.857Z,0.00
2018-10-11T01:03:39.190Z,0.00
2018-10-11T01:04:14.488Z,0.00
2018-10-11T01:04:49.916Z,0.00
2018-10-11T01:05:25.404Z,0.00
2018-10-11T01:06:00.611Z,0.00
2018-10-11T01:06:35.804Z,0.00
2018-10-11T01:07:11.523Z,0.00
2018-10-11T01:07:46.757Z,0.00
2018-10-11T01:08:22.340Z,0.00
2018-10-11T01:08:57.650Z,0.00
2018-10-11T01:09:33.008Z,0.00
2018-10-11T01:10:08.705Z,0.00
2018-10-11T01:10:43.981Z,0.00
2018-10-11T01:11:19.443Z,0.00
2018-10-11T01:11:54.976Z,0.00
2018-10-11T01:12:30.287Z,0.00
2018-10-11T01:13:05.746Z,0.00
2018-10-11T01:13:40.767Z,0.00
2018-10-11T01:14:16.221Z,0.00
2018-10-11T01:14:51.630Z,0.00
2018-10-11T01:15:26.947Z,0.00
2018-10-11T01:16:02.216Z,0.00
2018-10-11T01:16:37.467Z,0.00
2018-10-11T01:17:12.664Z,0.00
2018-10-11T01:17:48.007Z,0.00
2018-10-11T01:18:23.355Z,0.00
2018-10-11T01:18:58.598Z,0.00
2018-10-11T01:19:34.121Z,0.00
2018-10-11T01:20:09.287Z,0.00
2018-10-11T01:20:44.619Z,0.00
2018-10-11T01:21:19.993Z,0.00
2018-10-11T01:21:55.289Z,0.00
2018-10-11T01:22:30.730Z,0.00
2018-10-11T01:23:06.084Z,0.00
2018-10-11T01:23:41.501Z,0.00
2018-10-11T01:24:16.753Z,0.00
2018-10-11T01:24:52.483Z,0.00
2018-10-11T01:25:27.989Z,0.00
2018-10-11T01:26:03.564Z,0.00
2018-10-11T01:26:38.790Z,0.00
2018-10-11T01:27:14.452Z,0.00
2018-10-11T01:27:49.741Z,0.00
2018-10-11T01:28:25.471Z,0.00
2018-10-11T01:29:00.673Z,0.00
2018-10-11T01:29:35.941Z,0.00
2018-10-11T01:30:11.250Z,0.00
2018-10-11T01:30:46.586Z,0.00
2018-10-11T01:31:21.861Z,0.00
2018-10-11T01:31:57.724Z,0.00
2018-10-11T01:32:32.807Z,0.00
2018-10-11T01:33:08.155Z,0.00
2018-10-11T01:33:43.765Z,0.00
2018-10-11T01:34:19.012Z,0.00
2018-10-11T01:34:54.406Z,0.00
2018-10-11T01:35:30.145Z,0.00
2018-10-11T01:36:05.573Z,0.00
2018-10-11T01:36:40.710Z,0.00
2018-10-11T01:37:15.829Z,0.00
2018-10-11T01:37:51.735Z,0.00
2018-10-11T01:38:26.926Z,0.00
2018-10-11T01:39:02.283Z,0.00
2018-10-11T01:39:37.587Z,0.00
2018-10-11T01:40:13.149Z,0.00
2018-10-11T01:40:48.609Z,0.00
2018-10-11T01:41:24.083Z,0.00
2018-10-11T01:41:59.491Z,0.00
2018-10-11T01:42:34.741Z,0.00
2018-10-11T01:43:10.483Z,0.00
2018-10-11T01:43:45.805Z,0.00
2018-10-11T01:44:21.121Z,0.00
2018-10-11T01:44:56.443Z,0.00
2018-10-11T01:45:32.001Z,0.00
2018-10-11T01:46:07.352Z,0.00
2018-10-11T01:46:42.701Z,0.00
2018-10-11T01:47:17.971Z,0.00
2018-10-11T01:47:53.335Z,0.00
2018-10-11T01:48:28.839Z,0.00
2018-10-11T01:49:04.079Z,0.00
2018-10-11T01:49:39.554Z,0.00
2018-10-11T01:50:14.666Z,0.00
2018-10-11T01:50:49.990Z,0.00
2018-10-11T01:51:25.147Z,0.00
2018-10-11T01:52:00.585Z,0.00
2018-10-11T01:52:36.006Z,0.00
2018-10-11T01:53:11.141Z,0.00
2018-10-11T01:53:46.670Z,0.00
2018-10-11T01:54:22.022Z,0.00
2018-10-11T01:54:57.163Z,0.00
2018-10-11T01:55:32.461Z,0.00
2018-10-11T01:56:08.802Z,0.00
2018-10-11T01:56:44.253Z,0.00
2018-10-11T01:57:20.545Z,0.00
2018-10-11T01:57:55.618Z,0.00
2018-10-11T01:58:31.427Z,0.00
2018-10-11T01:59:06.820Z,0.00
2018-10-11T01:59:42.055Z,0.00
2018-10-11T02:00:17.373Z,0.00
2018-10-11T02:00:52.791Z,0.00
2018-10-11T02:01:28.247Z,0.00
2018-10-11T02:02:03.886Z,0.00
2018-10-11T02:02:39.191Z,0.00
2018-10-11T02:03:14.734Z,0.00
2018-10-11T02:03:50.188Z,0.00
2018-10-11T02:04:25.466Z,0.00
2018-10-11T02:05:00.569Z,0.00
2018-10-11T02:05:35.989Z,0.00
2018-10-11T02:06:11.499Z,0.00
2018-10-11T02:06:46.738Z,0.00
2018-10-11T02:07:22.140Z,0.00
2018-10-11T02:07:57.615Z,0.00
2018-10-11T02:08:32.808Z,0.00
2018-10-11T02:09:08.145Z,0.00
2018-10-11T02:09:43.438Z,0.00
2018-10-11T02:10:18.873Z,0.00
2018-10-11T02:10:54.391Z,0.00
2018-10-11T02:11:29.828Z,0.00
2018-10-11T02:12:05.036Z,0.00
2018-10-11T02:12:40.371Z,0.00
2018-10-11T02:13:15.556Z,0.00
2018-10-11T02:13:51.090Z,0.00
2018-10-11T02:14:26.600Z,0.00
2018-10-11T02:15:02.004Z,0.00
2018-10-11T02:15:37.219Z,0.00
2018-10-11T02:16:12.974Z,0.00
2018-10-11T02:16:48.390Z,0.00
2018-10-11T02:17:24.146Z,0.00
2018-10-11T02:17:59.609Z,0.00
2018-10-11T02:18:35.245Z,0.00
2018-10-11T02:19:10.836Z,0.00
2018-10-11T02:19:46.575Z,0.00
2018-10-11T02:20:21.980Z,0.00
2018-10-11T02:20:57.104Z,0.00
2018-10-11T02:21:32.632Z,0.00
2018-10-11T02:22:08.097Z,0.00
2018-10-11T02:22:43.749Z,0.00
2018-10-11T02:23:19.058Z,0.00
2018-10-11T02:23:54.386Z,0.00
2018-10-11T02:24:29.781Z,0.00
2018-10-11T02:25:05.126Z,0.00
2018-10-11T02:25:40.463Z,0.00
2018-10-11T02:26:16.077Z,0.00
2018-10-11T02:26:51.759Z,0.00
2018-10-11T02:27:27.098Z,0.00
2018-10-11T02:28:02.702Z,0.00
2018-10-11T02:28:38.681Z,0.00
2018-10-11T02:29:14.110Z,0.00
2018-10-11T02:29:49.612Z,0.00
2018-10-11T02:30:24.798Z,0.00
2018-10-11T02:31:00.014Z,0.00
2018-10-11T02:31:35.277Z,0.00
2018-10-11T02:32:10.805Z,0.00
2018-10-11T02:32:45.938Z,0.00
2018-10-11T02:33:21.592Z,0.00
2018-10-11T02:33:56.793Z,0.00
2018-10-11T02:34:32.131Z,0.00
2018-10-11T02:35:07.338Z,0.00
2018-10-11T02:35:42.646Z,0.00
2018-10-11T02:36:17.877Z,0.00
2018-10-11T02:36:53.477Z,0.00
2018-10-11T02:37:28.821Z,0.00
2018-10-11T02:38:04.339Z,0.00
2018-10-11T02:38:39.675Z,0.00
2018-10-11T02:39:14.976Z,0.00
2018-10-11T02:39:50.514Z,0.00
2018-10-11T02:40:25.964Z,0.00
2018-10-11T02:41:01.485Z,0.00
2018-10-11T02:41:37.120Z,0.00
2018-10-11T02:42:12.898Z,0.00
2018-10-11T02:42:47.957Z,0.00
2018-10-11T02:43:23.524Z,0.00
2018-10-11T02:43:58.869Z,0.00
2018-10-11T02:44:34.264Z,0.00
2018-10-11T02:45:09.816Z,0.00
2018-10-11T02:45:45.223Z,0.00
2018-10-11T02:46:20.886Z,0.00
2018-10-11T02:46:56.901Z,0.00
2018-10-11T02:47:32.513Z,0.00
2018-10-11T02:48:08.059Z,0.00
2018-10-11T02:48:43.506Z,0.00
2018-10-11T02:49:18.839Z,0.00
2018-10-11T02:49:53.866Z,0.00
2018-10-11T02:50:29.316Z,0.00
2018-10-11T02:51:04.790Z,0.00
2018-10-11T02:51:40.186Z,0.00
2018-10-11T02:52:15.739Z,0.00
2018-10-11T02:52:51.060Z,0.00
2018-10-11T02:53:26.675Z,0.00
2018-10-11T02:54:01.981Z,0.00
2018-10-11T02:54:37.225Z,0.00
2018-10-11T02:55:12.421Z,0.00
2018-10-11T02:55:48.150Z,0.00
2018-10-11T02:56:23.583Z,0.00
2018-10-11T02:56:58.953Z,0.00
2018-10-11T02:57:34.064Z,0.00
2018-10-11T02:58:09.550Z,0.00
2018-10-11T02:58:44.786Z,0.00
2018-10-11T02:59:20.007Z,0.00
2018-10-11T02:59:55.794Z,0.00
2018-10-11T03:00:31.018Z,0.00
2018-10-11T03:01:06.466Z,0.00
2018-10-11T03:01:41.808Z,0.00
2018-10-11T03:02:17.978Z,0.00
2018-10-11T03:02:53.631Z,0.00
2018-10-11T03:03:29.125Z,0.00
2018-10-11T03:04:04.677Z,0.00
2018-10-11T03:04:40.090Z,0.00
2018-10-11T03:05:15.760Z,0.00
2018-10-11T03:05:50.946Z,0.00
2018-10-11T03:06:26.301Z,0.00
2018-10-11T03:07:01.592Z,0.00
2018-10-11T03:07:36.925Z,0.00
2018-10-11T03:08:12.229Z,0.00
2018-10-11T03:08:47.652Z,0.00
2018-10-11T03:09:23.477Z,0.00
2018-10-11T03:09:59.094Z,0.00
2018-10-11T03:10:34.725Z,0.00
2018-10-11T03:11:09.909Z,0.00
2018-10-11T03:11:45.042Z,0.00
2018-10-11T03:12:20.051Z,0.00
2018-10-11T03:12:55.267Z,0.00
2018-10-11T03:13:30.508Z,0.00
2018-10-11T03:14:05.620Z,0.00
2018-10-11T03:14:41.142Z,0.00
2018-10-11T03:15:16.341Z,0.00
2018-10-11T03:15:51.624Z,0.00
2018-10-11T03:16:26.884Z,0.00
2018-10-11T03:17:02.358Z,0.00
2018-10-11T03:17:37.994Z,0.00
2018-10-11T03:18:13.564Z,0.00
2018-10-11T03:18:48.893Z,0.00
2018-10-11T03:19:24.558Z,0.00
2018-10-11T03:20:00.200Z,0.00
2018-10-11T03:20:35.577Z,0.00
2018-10-11T03:21:10.940Z,0.00
2018-10-11T03:21:46.368Z,0.00
2018-10-11T03:22:21.873Z,0.00
2018-10-11T03:22:57.263Z,0.00
2018-10-11T03:23:32.612Z,0.00
2018-10-11T03:24:07.974Z,0.00
2018-10-11T03:24:43.626Z,0.00
2018-10-11T03:25:19.301Z,0.00
2018-10-11T03:25:54.723Z,0.00
2018-10-11T03:26:30.572Z,0.00
2018-10-11T03:27:05.962Z,0.00
2018-10-11T03:27:41.631Z,0.00
2018-10-11T03:28:17.156Z,0.00
2018-10-11T03:28:52.180Z,0.00
2018-10-11T03:29:27.560Z,0.00
2018-10-11T03:30:03.150Z,0.00
2018-10-11T03:30:38.440Z,0.00
2018-10-11T03:31:13.621Z,0.00
2018-10-11T03:31:49.030Z,0.00
2018-10-11T03:32:24.399Z,0.00
2018-10-11T03:32:59.761Z,0.00
2018-10-11T03:33:35.264Z,0.00
2018-10-11T03:34:10.373Z,0.00
2018-10-11T03:34:46.003Z,0.00
2018-10-11T03:35:21.421Z,0.00
2018-10-11T03:35:56.596Z,0.00
2018-10-11T03:36:31.948Z,0.00
2018-10-11T03:37:07.694Z,0.00
2018-10-11T03:37:43.122Z,0.00
2018-10-11T03:38:18.602Z,0.00
2018-10-11T03:38:54.109Z,0.00
2018-10-11T03:39:29.580Z,0.00
2018-10-11T03:40:04.972Z,0.00
2018-10-11T03:40:40.627Z,0.00
2018-10-11T03:41:15.848Z,0.00
2018-10-11T03:41:51.976Z,0.00
2018-10-11T03:42:27.273Z,0.00
2018-10-11T03:43:02.856Z,0.00
2018-10-11T03:43:38.121Z,0.00
2018-10-11T03:44:13.346Z,0.00
2018-10-11T03:44:48.554Z,0.00
2018-10-11T03:45:24.025Z,0.00
2018-10-11T03:45:59.454Z,0.00
2018-10-11T03:46:35.110Z,0.00
2018-10-11T03:47:10.242Z,0.00
2018-10-11T03:47:45.712Z,0.00
2018-10-11T03:48:20.815Z,0.00
2018-10-11T03:48:57.621Z,0.00
2018-10-11T03:49:32.946Z,0.00
2018-10-11T03:50:08.370Z,0.00
2018-10-11T03:50:43.728Z,0.00
2018-10-11T03:51:19.257Z,0.00
2018-10-11T03:51:54.588Z,0.00
2018-10-11T03:52:30.018Z,0.00
2018-10-11T03:53:05.432Z,0.00
2018-10-11T03:53:40.658Z,0.00
2018-10-11T03:54:16.211Z,0.00
2018-10-11T03:54:51.870Z,0.00
2018-10-11T03:55:26.940Z,0.00
2018-10-11T03:56:02.080Z,0.00
2018-10-11T03:56:37.418Z,0.00
2018-10-11T03:57:12.744Z,0.00
2018-10-11T03:57:48.389Z,0.00
2018-10-11T03:58:23.819Z,0.00
2018-10-11T03:58:59.072Z,0.00
2018-10-11T03:59:34.479Z,0.00
2018-10-11T04:00:09.701Z,0.00
2018-10-11T04:00:45.127Z,0.00
2018-10-11T04:01:20.384Z,0.00
2018-10-11T04:01:55.594Z,0.00
2018-10-11T04:02:30.748Z,0.00
2018-10-11T04:03:06.390Z,0.00
2018-10-11T04:03:42.444Z,0.00
2018-10-11T04:04:17.783Z,0.00
2018-10-11T04:04:52.992Z,0.00
2018-10-11T04:05:28.237Z,0.00
2018-10-11T04:06:03.660Z,0.00
2018-10-11T04:06:39.004Z,0.00
2018-10-11T04:07:14.531Z,0.00
2018-10-11T04:07:49.867Z,0.00
2018-10-11T04:08:25.243Z,0.00
2018-10-11T04:09:00.575Z,0.00
2018-10-11T04:09:36.624Z,0.00
2018-10-11T04:10:11.867Z,0.00
2018-10-11T04:10:48.189Z,0.00
2018-10-11T04:11:23.677Z,0.00
2018-10-11T04:11:59.174Z,0.00
2018-10-11T04:12:34.625Z,0.00
2018-10-11T04:13:09.949Z,0.00
2018-10-11T04:13:45.972Z,0.00
2018-10-11T04:14:21.541Z,0.00
2018-10-11T04:14:56.970Z,0.00
2018-10-11T04:15:32.419Z,0.00
2018-10-11T04:16:07.702Z,0.00
2018-10-11T04:16:43.343Z,0.00
2018-10-11T04:17:21.160Z,0.00
2018-10-11T04:17:56.608Z,0.00
2018-10-11T04:18:31.852Z,0.00
2018-10-11T04:19:06.997Z,0.00
2018-10-11T04:19:42.403Z,0.00
2018-10-11T04:20:18.000Z,0.00
2018-10-11T04:20:53.369Z,0.00
2018-10-11T04:21:28.703Z,0.00
2018-10-11T04:22:04.028Z,0.00
2018-10-11T04:22:39.769Z,0.00
2018-10-11T04:23:15.079Z,0.00
2018-10-11T04:23:50.908Z,0.00
2018-10-11T04:24:26.217Z,0.00
2018-10-11T04:25:01.646Z,0.00
2018-10-11T04:25:37.208Z,0.00
2018-10-11T04:26:12.463Z,0.00
2018-10-11T04:26:47.881Z,0.00
2018-10-11T04:27:23.241Z,0.00
2018-10-11T04:27:58.829Z,0.00
2018-10-11T04:28:34.382Z,0.00
2018-10-11T04:29:09.679Z,0.00
2018-10-11T04:29:45.226Z,0.00
2018-10-11T04:30:20.425Z,0.00
2018-10-11T04:30:55.983Z,0.00
2018-10-11T04:31:31.420Z,0.00
2018-10-11T04:32:06.554Z,0.00
2018-10-11T04:32:41.909Z,0.00
2018-10-11T04:33:17.152Z,0.00
2018-10-11T04:33:52.468Z,0.00
2018-10-11T04:34:27.783Z,0.00
2018-10-11T04:35:03.006Z,0.00
2018-10-11T04:35:38.497Z,0.00
2018-10-11T04:36:14.290Z,4.00
2018-10-11T04:36:49.520Z,4.00
2018-10-11T04:37:24.856Z,4.00
2018-10-11T04:38:00.275Z,4.00
2018-10-11T04:38:35.650Z,4.00
2018-10-11T04:39:11.627Z,4.00
2018-10-11T04:39:46.998Z,4.00
2018-10-11T04:40:22.406Z,4.00
2018-10-11T04:40:57.886Z,4.00
2018-10-11T04:41:33.095Z,4.00
2018-10-11T04:42:08.536Z,4.00
2018-10-11T04:42:44.277Z,4.00
2018-10-11T04:43:19.722Z,4.00
2018-10-11T04:43:55.230Z,4.00
2018-10-11T04:44:30.658Z,4.00
2018-10-11T04:45:05.925Z,4.00
2018-10-11T04:45:41.123Z,4.00
2018-10-11T04:46:16.184Z,4.00
2018-10-11T04:46:52.248Z,4.00
2018-10-11T04:47:27.487Z,4.00
2018-10-11T04:48:03.007Z,4.00
2018-10-11T04:48:38.423Z,4.00
2018-10-11T04:49:13.868Z,4.00
2018-10-11T04:49:49.388Z,4.00
2018-10-11T04:50:24.636Z,4.00
2018-10-11T04:51:00.068Z,4.00
2018-10-11T04:51:35.315Z,4.00
2018-10-11T04:52:10.611Z,4.00
2018-10-11T04:52:46.140Z,4.00
2018-10-11T04:53:21.769Z,4.00
2018-10-11T04:54:00.384Z,4.00
2018-10-11T04:54:35.684Z,4.00
2018-10-11T04:55:10.909Z,4.00
2018-10-11T04:55:46.403Z,4.00
2018-10-11T04:56:21.749Z,4.00
2018-10-11T04:56:57.779Z,4.00
2018-10-11T04:57:33.230Z,4.00
2018-10-11T04:58:08.724Z,4.00
2018-10-11T04:58:44.067Z,4.00
2018-10-11T04:59:19.436Z,4.00
2018-10-11T04:59:58.266Z,4.00
2018-10-11T05:00:33.887Z,4.00
2018-10-11T05:01:09.252Z,4.00
2018-10-11T05:01:44.565Z,4.00
2018-10-11T05:02:19.899Z,4.00
2018-10-11T05:02:55.302Z,4.00
2018-10-11T05:03:30.762Z,0.00
2018-10-11T05:04:06.271Z,4.00
2018-10-11T05:04:41.955Z,0.00
2018-10-11T05:05:17.560Z,0.00
2018-10-11T05:05:53.076Z,0.00
2018-10-11T05:06:28.477Z,0.00
2018-10-11T05:07:03.730Z,0.00
2018-10-11T05:07:39.226Z,0.00
2018-10-11T05:08:14.557Z,0.00
2018-10-11T05:08:50.074Z,0.00
2018-10-11T05:09:25.393Z,0.00
2018-10-11T05:10:01.053Z,0.00
2018-10-11T05:10:36.692Z,0.00
2018-10-11T05:11:11.980Z,0.00
2018-10-11T05:11:47.300Z,0.00
2018-10-11T05:12:22.702Z,0.00
2018-10-11T05:12:57.847Z,0.00
2018-10-11T05:13:33.286Z,0.00
2018-10-11T05:14:08.358Z,0.00
2018-10-11T05:14:43.511Z,0.00
2018-10-11T05:15:18.835Z,4.00
2018-10-11T05:15:54.421Z,4.00
2018-10-11T05:16:29.911Z,4.00
2018-10-11T05:17:05.486Z,4.00
2018-10-11T05:17:40.885Z,0.00
2018-10-11T05:18:16.330Z,0.00
2018-10-11T05:18:51.737Z,4.00
2018-10-11T05:19:27.482Z,4.00
2018-10-11T05:20:02.795Z,4.00
2018-10-11T05:20:38.359Z,4.00
2018-10-11T05:21:13.780Z,4.00
2018-10-11T05:21:49.221Z,4.00
2018-10-11T05:22:25.254Z,4.00
2018-10-11T05:23:00.720Z,8.00
2018-10-11T05:23:35.941Z,4.00
2018-10-11T05:24:11.158Z,4.00
2018-10-11T05:24:46.310Z,8.00
2018-10-11T05:25:21.465Z,4.00
2018-10-11T05:25:56.782Z,8.00
2018-10-11T05:26:32.251Z,8.00
2018-10-11T05:27:07.702Z,12.00
2018-10-11T05:27:43.131Z,8.00
2018-10-11T05:28:19.221Z,12.00
2018-10-11T05:28:54.536Z,12.00
2018-10-11T05:29:29.869Z,16.00
2018-10-11T05:30:05.087Z,16.00
2018-10-11T05:30:40.943Z,16.00
2018-10-11T05:31:16.535Z,20.00
2018-10-11T05:31:51.963Z,20.00
2018-10-11T05:32:27.657Z,24.00
2018-10-11T05:33:02.797Z,24.00
2018-10-11T05:33:38.224Z,28.00
2018-10-11T05:34:13.739Z,32.00
2018-10-11T05:34:48.968Z,32.00
2018-10-11T05:35:24.410Z,36.00
2018-10-11T05:35:59.559Z,36.00
2018-10-11T05:36:35.012Z,40.00
2018-10-11T05:37:10.402Z,40.00
2018-10-11T05:37:45.746Z,48.00
2018-10-11T05:38:21.078Z,48.00
2018-10-11T05:38:56.397Z,52.00
2018-10-11T05:39:31.532Z,60.00
2018-10-11T05:40:06.830Z,60.00
2018-10-11T05:40:43.968Z,64.00
2018-10-11T05:41:19.378Z,68.00
2018-10-11T05:41:54.891Z,72.00
2018-10-11T05:42:30.209Z,80.00
2018-10-11T05:43:05.636Z,84.00
2018-10-11T05:43:40.951Z,84.00
2018-10-11T05:44:16.278Z,92.00
2018-10-11T05:44:51.575Z,96.00
2018-10-11T05:45:27.006Z,104.00
2018-10-11T05:46:02.143Z,108.00
2018-10-11T05:46:38.118Z,112.00
2018-10-11T05:47:13.452Z,116.00
2018-10-11T05:47:49.550Z,128.00
2018-10-11T05:48:24.887Z,132.00
2018-10-11T05:49:00.577Z,140.00
2018-10-11T05:49:36.084Z,148.00
2018-10-11T05:50:11.585Z,152.00
2018-10-11T05:50:46.866Z,160.00
2018-10-11T05:51:22.637Z,168.00
2018-10-11T05:51:58.188Z,176.00
2018-10-11T05:52:33.453Z,180.00
2018-10-11T05:53:08.957Z,192.00
2018-10-11T05:53:44.469Z,196.00
2018-10-11T05:54:19.957Z,208.00
2018-10-11T05:54:55.223Z,216.00
2018-10-11T05:55:30.710Z,224.00
2018-10-11T05:56:06.055Z,232.00
2018-10-11T05:56:41.636Z,244.00
2018-10-11T05:57:17.048Z,252.00
2018-10-11T05:57:52.246Z,260.00
2018-10-11T05:58:27.631Z,272.00
2018-10-11T05:59:02.809Z,280.00
2018-10-11T05:59:38.549Z,292.00
2018-10-11T06:00:13.687Z,300.00
2018-10-11T06:00:49.267Z,312.00
2018-10-11T06:01:24.780Z,320.00
2018-10-11T06:02:00.244Z,332.00
2018-10-11T06:02:35.308Z,344.00
2018-10-11T06:03:10.892Z,352.00
2018-10-11T06:03:46.195Z,364.00
2018-10-11T06:04:21.685Z,376.00
2018-10-11T06:04:56.891Z,388.00
2018-10-11T06:05:32.621Z,400.00
2018-10-11T06:06:07.856Z,412.00
2018-10-11T06:06:43.422Z,424.00
2018-10-11T06:07:18.888Z,432.00
2018-10-11T06:07:54.257Z,444.00
2018-10-11T06:08:29.661Z,456.00
2018-10-11T06:09:05.000Z,468.00
2018-10-11T06:09:40.304Z,484.00
2018-10-11T06:10:15.680Z,492.00
2018-10-11T06:10:51.183Z,508.00
2018-10-11T06:11:26.834Z,520.00
2018-10-11T06:12:02.127Z,536.00
2018-10-11T06:12:37.315Z,544.00
2018-10-11T06:13:12.833Z,560.00
2018-10-11T06:13:48.522Z,576.00
2018-10-11T06:14:23.924Z,588.00
2018-10-11T06:14:59.172Z,600.00
2018-10-11T06:15:34.659Z,612.00
2018-10-11T06:16:10.054Z,624.00
2018-10-11T06:16:45.494Z,640.00
2018-10-11T06:17:20.823Z,652.00
2018-10-11T06:17:56.206Z,664.00
2018-10-11T06:18:31.748Z,680.00
2018-10-11T06:19:07.146Z,692.00
2018-10-11T06:19:42.573Z,704.00
2018-10-11T06:20:17.764Z,720.00
2018-10-11T06:20:53.104Z,732.00
2018-10-11T06:21:28.616Z,748.00
2018-10-11T06:22:04.189Z,764.00
2018-10-11T06:22:39.689Z,776.00
2018-10-11T06:23:14.857Z,784.00
2018-10-11T06:23:49.949Z,804.00
2018-10-11T06:24:25.388Z,812.00
2018-10-11T06:25:00.613Z,824.00
2018-10-11T06:25:36.636Z,836.00
2018-10-11T06:26:12.159Z,852.00
2018-10-11T06:26:47.707Z,864.00
2018-10-11T06:27:23.326Z,876.00
2018-10-11T06:27:58.445Z,888.00
2018-10-11T06:28:33.792Z,904.00
2018-10-11T06:29:09.165Z,916.00
2018-10-11T06:29:44.393Z,928.00
2018-10-11T06:30:20.126Z,944.00
2018-10-11T06:30:55.379Z,956.00
2018-10-11T06:31:30.512Z,972.00
2018-10-11T06:32:06.416Z,984.00
2018-10-11T06:32:41.697Z,1000.00
2018-10-11T06:33:17.064Z,1012.00
2018-10-11T06:33:53.044Z,1024.00
2018-10-11T06:34:28.657Z,1036.00
2018-10-11T06:35:04.105Z,1048.00
2018-10-11T06:35:39.415Z,1052.00
2018-10-11T06:36:15.064Z,1068.00
2018-10-11T06:36:50.363Z,1084.00
2018-10-11T06:37:25.924Z,1092.00
2018-10-11T06:38:01.085Z,1108.00
2018-10-11T06:38:37.575Z,1120.00
2018-10-11T06:39:13.078Z,1136.00
2018-10-11T06:39:48.409Z,1156.00
2018-10-11T06:40:23.694Z,1180.00
2018-10-11T06:40:58.750Z,1208.00
2018-10-11T06:41:34.300Z,1240.00
2018-10-11T06:42:09.923Z,1280.00
2018-10-11T06:42:45.430Z,1320.00
2018-10-11T06:43:20.933Z,1364.00
2018-10-11T06:43:56.483Z,1408.00
2018-10-11T06:44:31.732Z,1452.00
2018-10-11T06:45:06.945Z,1492.00
2018-10-11T06:45:42.400Z,1536.00
2018-10-11T06:46:18.203Z,1580.00
2018-10-11T06:46:53.654Z,1616.00
2018-10-11T06:47:28.940Z,1652.00
2018-10-11T06:48:04.268Z,1684.00
2018-10-11T06:48:40.106Z,1716.00
2018-10-11T06:49:15.766Z,1748.00
2018-10-11T06:49:51.303Z,1780.00
2018-10-11T06:50:26.810Z,1804.00
2018-10-11T06:51:02.250Z,1836.00
2018-10-11T06:51:37.865Z,1864.00
2018-10-11T06:52:13.475Z,1900.00
2018-10-11T06:52:48.801Z,1932.00
2018-10-11T06:53:24.323Z,1960.00
2018-10-11T06:53:59.663Z,1988.00
2018-10-11T06:54:34.902Z,2016.00
2018-10-11T06:55:10.089Z,2036.00
2018-10-11T06:55:45.732Z,2064.00
2018-10-11T06:56:21.184Z,2088.00
2018-10-11T06:56:56.481Z,2116.00
2018-10-11T06:57:31.634Z,2104.00
2018-10-11T06:58:07.240Z,2164.00
2018-10-11T06:58:42.369Z,2188.00
2018-10-11T06:59:17.488Z,2224.00
2018-10-11T06:59:52.854Z,2264.00
2018-10-11T07:00:28.183Z,2300.00
2018-10-11T07:01:03.750Z,2356.00
2018-10-11T07:01:39.057Z,2432.00
2018-10-11T07:02:14.369Z,2524.00
2018-10-11T07:02:49.692Z,2632.00
2018-10-11T07:03:25.237Z,2756.00
2018-10-11T07:04:00.583Z,2888.00
2018-10-11T07:04:36.163Z,3004.00
2018-10-11T07:05:11.367Z,3108.00
2018-10-11T07:05:46.717Z,3184.00
2018-10-11T07:06:22.256Z,3268.00
2018-10-11T07:06:57.703Z,3328.00
2018-10-11T07:07:33.002Z,3396.00
2018-10-11T07:08:08.683Z,3460.00
2018-10-11T07:08:44.178Z,3520.00
2018-10-11T07:09:19.496Z,3584.00
2018-10-11T07:09:55.777Z,3644.00
2018-10-11T07:10:31.405Z,3688.00
2018-10-11T07:11:07.019Z,3740.00
2018-10-11T07:11:42.474Z,3772.00
2018-10-11T07:12:17.660Z,3796.00
2018-10-11T07:12:53.057Z,3820.00
2018-10-11T07:13:28.431Z,3848.00
2018-10-11T07:14:03.878Z,3876.00
2018-10-11T07:14:39.237Z,3884.00
2018-10-11T07:15:14.796Z,3900.00
2018-10-11T07:15:50.179Z,3920.00
2018-10-11T07:16:25.468Z,3924.00
2018-10-11T07:17:00.729Z,3936.00
2018-10-11T07:17:36.091Z,3928.00
2018-10-11T07:18:11.509Z,3936.00
2018-10-11T07:18:46.972Z,3932.00
2018-10-11T07:19:22.187Z,3920.00
2018-10-11T07:19:57.696Z,3920.00
2018-10-11T07:20:32.931Z,3908.00
2018-10-11T07:21:08.320Z,3896.00
2018-10-11T07:21:43.923Z,3892.00
2018-10-11T07:22:19.239Z,3880.00
2018-10-11T07:22:54.660Z,3864.00
2018-10-11T07:23:29.982Z,3864.00
2018-10-11T07:24:05.632Z,3844.00
2018-10-11T07:24:41.054Z,3836.00
2018-10-11T07:25:16.464Z,3840.00
2018-10-11T07:25:51.978Z,3840.00
2018-10-11T07:26:27.319Z,3844.00
2018-10-11T07:27:02.769Z,3844.00
2018-10-11T07:27:38.410Z,3844.00
2018-10-11T07:28:14.073Z,3856.00
2018-10-11T07:28:49.379Z,3868.00
2018-10-11T07:29:24.711Z,3880.00
2018-10-11T07:30:00.018Z,3896.00
2018-10-11T07:30:35.137Z,3908.00
2018-10-11T07:31:10.291Z,3916.00
2018-10-11T07:31:45.614Z,3928.00
2018-10-11T07:32:20.978Z,3940.00
2018-10-11T07:32:57.821Z,3960.00
2018-10-11T07:33:33.127Z,3980.00
2018-10-11T07:34:08.759Z,3996.00
2018-10-11T07:34:44.225Z,4008.00
2018-10-11T07:35:19.753Z,4036.00
2018-10-11T07:35:55.009Z,4052.00
2018-10-11T07:36:30.278Z,4068.00
2018-10-11T07:37:05.471Z,4092.00
2018-10-11T07:37:40.704Z,4116.00
2018-10-11T07:38:15.925Z,4132.00
2018-10-11T07:38:51.414Z,4152.00
2018-10-11T07:39:26.626Z,4172.00
2018-10-11T07:40:02.071Z,4192.00
2018-10-11T07:40:37.935Z,4196.00
2018-10-11T07:41:13.416Z,4220.00